Goshen, Indiana
Current Conditions -  °F | °C
As of 3:53 AM on Friday 31 Oct 2014 (Local Time) from KGSH Reporting Station
Overcast Overcast  
Wind Chill: 40°   Ceiling: 6000
Heat Index: 44°   Visibility: 10mi
Dew Point: 37°   Wind: 8mph
Humidity: 76%   Direction: 230°SW
Pressure: 29.97"   Gusts: NA
Location:  41.59°N, 85.84°W
Report Text: KGSH 310753Z AUTO 23007KT 10SM FEW048 OVC060 07/03 A2997 RMK AO2 SLP152 T00670028
Loading
Personal Weather Stations






























Interactive Weather Map New forecast layout! Learn more

10-Day Weather Forecast

Advertisements
Track Severe Weather on mobile